Gordon Reid — CGBR — position and weather

sailwx.info

Track history (hours):
 
Tides and Currents Weather Stations Pressure Air Temp Water Temp Dewpoint Dewpoint Depression Visibility Wind Speed Wind Dir Waves Ship Positions

Gordon Reid

Last reported at 2015-May-26 03:10 UTC. Time now 2015-May-28 18:06 UTC.
Position N 49°39' W 126°58'.

Length 49.95 m; beam 11 m; draft 5.4 m.

Type: SAR. MMSI: 316094000.

Date/timePositionNaut miles runAvg speedWind from/ knotsBaromVisibWave heightAir tempDewpointWater temp
2015-May-26 03:10N 49°39' W 126°58'710.9
2015-May-26 02:31N 49°33' W 126°54'1010.7
2015-May-26 01:33N 49°25' W 126°43'1110.8
2015-May-26 00:33N 49°18' W 126°31'1111.0
2015-May-25 23:33N 49°12' W 126°17'1110.8
2015-May-25 22:34N 49°06' W 126°03'1110.9
2015-May-25 21:33N 49°01' W 125°49'1110.8
2015-May-25 20:33N 48°55' W 125°35'7 7.3
2015-May-25 19:33N 48°56' W 125°24'0 0.0
2015-May-25 18:31N 48°56' W 125°24'0 0.0
2015-May-25 17:31N 48°56' W 125°24'0 0.0
2015-May-25 16:31N 48°56' W 125°24'0 0.0
2015-May-25 15:31N 48°56' W 125°24'0 0.0
2015-May-25 14:31N 48°56' W 125°24'0 0.0
2015-May-25 13:31N 48°56' W 125°24'0 0.0
2015-May-25 12:31N 48°56' W 125°24'0 0.0
2015-May-25 11:31N 48°56' W 125°24'0 0.0
2015-May-25 10:31N 48°56' W 125°24'0 0.0
2015-May-25 09:31N 48°56' W 125°24'0 0.0
2015-May-25 08:31N 48°56' W 125°24'0 0.0
2015-May-25 07:31N 48°56' W 125°24'0 0.0
2015-May-25 06:28N 48°56' W 125°24'0 0.0
2015-May-25 05:25N 48°56' W 125°24'0 0.0
2015-May-25 04:31N 48°56' W 125°24'5 4.9
2015-May-25 03:33N 48°52' W 125°26'1110.4
2015-May-25 02:28N 48°43' W 125°15'33 0.7
2015-May-23 05:32N 48°32' W 124°29'0 0.0
2015-May-23 04:32N 48°32' W 124°29'1 0.7
2015-May-23 03:34N 48°32' W 124°29'1313.2
2015-May-23 02:33N 48°35' W 124°48'1312.5
2015-May-23 01:30N 48°39' W 125°07'1112.0
2015-May-23 00:33N 48°43' W 125°23'1211.8
2015-May-22 23:33N 48°48' W 125°40'1211.5
2015-May-22 22:33N 48°54' W 125°54'1110.6
2015-May-22 21:33N 49°01' W 126°07'1410.2
2015-May-22 20:13N 49°09' W 126°24'710.5
2015-May-22 19:33N 49°13' W 126°33'1110.8
2015-May-22 18:33N 49°19' W 126°45'1110.6
2015-May-22 17:33N 49°27' W 126°57'94 8.3
2015-May-22 06:10N 50°53' W 127°56'711.3
2015-May-22 05:33N 50°51' W 127°45'1111.4
2015-May-22 04:33N 50°47' W 127°28'4 0.3
2015-May-21 16:28N 50°43' W 127°29'0 0.0
2015-May-21 15:16N 50°43' W 127°29'0 0.0
2015-May-21 13:04N 50°43' W 127°29'0 0.0
2015-May-21 12:25N 50°43' W 127°29'0 0.0
2015-May-21 11:31N 50°43' W 127°29'0 0.0
2015-May-21 10:31N 50°43' W 127°29'0 0.0
2015-May-21 09:31N 50°43' W 127°29'0 0.0
2015-May-21 08:31N 50°43' W 127°29'0 0.0
2015-May-21 07:31N 50°43' W 127°29'0 0.0
2015-May-21 06:31N 50°43' W 127°29'0 0.0
2015-May-21 05:25N 50°43' W 127°29'0 0.0
2015-May-21 03:25N 50°43' W 127°29'0 0.0
2015-May-21 02:31N 50°43' W 127°29'0 0.0
2015-May-21 01:31N 50°43' W 127°29'0 0.0
2015-May-21 00:31N 50°43' W 127°29'0 0.0
2015-May-20 23:31N 50°43' W 127°29'0 0.0
2015-May-20 22:31N 50°43' W 127°29'0 0.0
2015-May-20 21:31N 50°43' W 127°29'0 0.0
2015-May-20 20:31N 50°43' W 127°29'0 0.4
2015-May-20 19:31N 50°44' W 127°29'1 0.7
2015-May-20 18:30N 50°43' W 127°28'0 0.0
2015-May-20 17:30N 50°43' W 127°28'0 0.0
2015-May-20 16:30N 50°43' W 127°28'0 0.0
2015-May-20 15:30N 50°43' W 127°28'4 3.7
2015-May-20 14:33N 50°47' W 127°29'8 7.6
2015-May-20 13:30N 50°51' W 127°40'0 0.0
2015-May-20 12:33N 50°51' W 127°40'0 0.0
2015-May-20 11:33N 50°51' W 127°40'0 0.0
2015-May-20 10:33N 50°51' W 127°40'0 0.0
2015-May-20 09:33N 50°51' W 127°40'0 0.0
2015-May-20 08:33N 50°51' W 127°40'0 0.0
2015-May-20 07:33N 50°51' W 127°40'0 0.0
2015-May-20 06:33N 50°51' W 127°40'0 0.0
2015-May-20 05:33N 50°51' W 127°40'3 2.6
2015-May-20 04:33N 50°50' W 127°44'  
Track history (hours):
 
Tides and Currents Weather Stations Pressure Air Temp Water Temp Dewpoint Dewpoint Depression Visibility Wind Speed Wind Dir Waves Ship Positions

Gordon Reid

Last reported at 2015-May-26 03:10 UTC. Time now 2015-May-28 18:06 UTC.
Position N 49°39' W 126°58'.

Length 49.95 m; beam 11 m; draft 5.4 m.

Type: SAR. MMSI: 316094000.

Date/timePositionNaut miles runAvg speedWind from/ knotsBaromVisibWave heightAir tempDewpointWater temp
2015-May-26 03:10N 49°39' W 126°58'710.9
2015-May-26 02:31N 49°33' W 126°54'1010.7
2015-May-26 01:33N 49°25' W 126°43'1110.8
2015-May-26 00:33N 49°18' W 126°31'1111.0
2015-May-25 23:33N 49°12' W 126°17'1110.8
2015-May-25 22:34N 49°06' W 126°03'1110.9
2015-May-25 21:33N 49°01' W 125°49'1110.8
2015-May-25 20:33N 48°55' W 125°35'7 7.3
2015-May-25 19:33N 48°56' W 125°24'0 0.0
2015-May-25 18:31N 48°56' W 125°24'0 0.0
2015-May-25 17:31N 48°56' W 125°24'0 0.0
2015-May-25 16:31N 48°56' W 125°24'0 0.0
2015-May-25 15:31N 48°56' W 125°24'0 0.0
2015-May-25 14:31N 48°56' W 125°24'0 0.0
2015-May-25 13:31N 48°56' W 125°24'0 0.0
2015-May-25 12:31N 48°56' W 125°24'0 0.0
2015-May-25 11:31N 48°56' W 125°24'0 0.0
2015-May-25 10:31N 48°56' W 125°24'0 0.0
2015-May-25 09:31N 48°56' W 125°24'0 0.0
2015-May-25 08:31N 48°56' W 125°24'0 0.0
2015-May-25 07:31N 48°56' W 125°24'0 0.0
2015-May-25 06:28N 48°56' W 125°24'0 0.0
2015-May-25 05:25N 48°56' W 125°24'0 0.0
2015-May-25 04:31N 48°56' W 125°24'5 4.9
2015-May-25 03:33N 48°52' W 125°26'1110.4
2015-May-25 02:28N 48°43' W 125°15'33 0.7
2015-May-23 05:32N 48°32' W 124°29'0 0.0
2015-May-23 04:32N 48°32' W 124°29'1 0.7
2015-May-23 03:34N 48°32' W 124°29'1313.2
2015-May-23 02:33N 48°35' W 124°48'1312.5
2015-May-23 01:30N 48°39' W 125°07'1112.0
2015-May-23 00:33N 48°43' W 125°23'1211.8
2015-May-22 23:33N 48°48' W 125°40'1211.5
2015-May-22 22:33N 48°54' W 125°54'1110.6
2015-May-22 21:33N 49°01' W 126°07'1410.2
2015-May-22 20:13N 49°09' W 126°24'710.5
2015-May-22 19:33N 49°13' W 126°33'1110.8
2015-May-22 18:33N 49°19' W 126°45'1110.6
2015-May-22 17:33N 49°27' W 126°57'94 8.3
2015-May-22 06:10N 50°53' W 127°56'711.3
2015-May-22 05:33N 50°51' W 127°45'1111.4
2015-May-22 04:33N 50°47' W 127°28'4 0.3
2015-May-21 16:28N 50°43' W 127°29'0 0.0
2015-May-21 15:16N 50°43' W 127°29'0 0.0
2015-May-21 13:04N 50°43' W 127°29'0 0.0
2015-May-21 12:25N 50°43' W 127°29'0 0.0
2015-May-21 11:31N 50°43' W 127°29'0 0.0
2015-May-21 10:31N 50°43' W 127°29'0 0.0
2015-May-21 09:31N 50°43' W 127°29'0 0.0
2015-May-21 08:31N 50°43' W 127°29'0 0.0
2015-May-21 07:31N 50°43' W 127°29'0 0.0
2015-May-21 06:31N 50°43' W 127°29'0 0.0
2015-May-21 05:25N 50°43' W 127°29'0 0.0
2015-May-21 03:25N 50°43' W 127°29'0 0.0
2015-May-21 02:31N 50°43' W 127°29'0 0.0
2015-May-21 01:31N 50°43' W 127°29'0 0.0
2015-May-21 00:31N 50°43' W 127°29'0 0.0
2015-May-20 23:31N 50°43' W 127°29'0 0.0
2015-May-20 22:31N 50°43' W 127°29'0 0.0
2015-May-20 21:31N 50°43' W 127°29'0 0.0
2015-May-20 20:31N 50°43' W 127°29'0 0.4
2015-May-20 19:31N 50°44' W 127°29'1 0.7
2015-May-20 18:30N 50°43' W 127°28'0 0.0
2015-May-20 17:30N 50°43' W 127°28'0 0.0
2015-May-20 16:30N 50°43' W 127°28'0 0.0
2015-May-20 15:30N 50°43' W 127°28'4 3.7
2015-May-20 14:33N 50°47' W 127°29'8 7.6
2015-May-20 13:30N 50°51' W 127°40'0 0.0
2015-May-20 12:33N 50°51' W 127°40'0 0.0
2015-May-20 11:33N 50°51' W 127°40'0 0.0
2015-May-20 10:33N 50°51' W 127°40'0 0.0
2015-May-20 09:33N 50°51' W 127°40'0 0.0
2015-May-20 08:33N 50°51' W 127°40'0 0.0
2015-May-20 07:33N 50°51' W 127°40'0 0.0
2015-May-20 06:33N 50°51' W 127°40'0 0.0
2015-May-20 05:33N 50°51' W 127°40'3 2.6
2015-May-20 04:33N 50°50' W 127°44'  

Dump ship's entire track history